aviador You're here:

KRFD Decoded Metar

ROCKFORD in IL, USA
Report Time2018-01-18 09:54:00
UTC Time2018-01-18 10:04:46
Flight Rules vfr VFR
Wind240° at 08 kt
W.Decomp.*RWY 25: 7.9 kt HW 1.1 kt LCW
RWY 19: 4.9 kt HW 6.3 kt RCW
W.Rank240° ranks 27
Current wind is below 240° avg. (8.1)
Visibility9999 m
Phenomena:N/A
Clouds:N/A
Expected CloudBase > 2,000 ft AGL from Temp-Dew spread
CeilingNone
Temp-8°C (ISA -22)
Dew Point-13°C (68% RH)
AAT-14.1°C
QNH1022 hPa
Density Alt-2,228 ft
Elevation725 ft
Report Wrong Elevation
Raw Report
KRFD 180954Z 24008KT 10SM CLR M08/M13 A3017 RMK AO2 SLP231
T10831128=

Extra information for KRFD:More info

Metar Taf Metar & Taf Last 4 Metars F.Rules Stats Wind Profile Meteogram Temp Stats Airport Information Weather charts Add Link Nearby VenuesMetar ALERT Operation Metar Decoded Social comments

AIRNAV info for KRFD